Flight Track Log - Related Links

Times and Time Zones

All times are in EDT time to prevent confusion due to time zone crossing. See the BJS542 flight status page for this flight to view local times or setup timezone preferences in your user account.

Time Position Orientation Groundspeed Altitude Reporting Facility
EDT Latitude Longitude Course Direction KTS MPH feet Rate Location/Type
Sun 12:03:45 PM 34.7061 -82.7881 29° Northeast 205 236 7,700  Level Atlanta Center
Sun 12:04:45 PM 34.7428 -82.6992 63° Northeast 244 281 9,900 2,900 Climbing Atlanta Center
Sun 12:05:45 PM 34.7919 -82.6122 55° Northeast 285 328 13,500 3,750 Climbing Atlanta Center
Sun 12:06:45 PM 34.8767 -82.5500 31° Northeast 316 364 17,400 2,900 Climbing Atlanta Center
Sun 12:08:45 PM 35.0689 -82.3969 33° Northeast 393 452 22,200 2,133 Climbing Atlanta Center
Sun 12:09:00 PM 35.1459 -82.4139 29° Northeast  Level FlightAware Approximate
Sun 12:09:45 PM 35.1700 -82.3111 35° Northeast 421 484 23,800  Level Atlanta Center
Sun 12:10:45 PM 35.2792 -82.2272 32° Northeast 447 514 24,000 1,500 Climbing Atlanta Center
Sun 12:11:45 PM 35.3844 -82.1433 33° Northeast 460 529 26,800 1,500 Climbing Atlanta Center
Sun 12:12:45 PM 35.4894 -82.0569 34° Northeast 455 524 27,000 100 Climbing Atlanta Center
Sun 12:13:45 PM 35.5964 -81.9675 34° Northeast 455 524 27,000  Level Atlanta Center
Sun 12:14:45 PM 35.7056 -81.8778 34° Northeast 461 531 27,000  Level Atlanta Center
Sun 12:15:45 PM 35.8125 -81.7906 33° Northeast 461 531 27,000  Level Atlanta Center
Sun 12:16:45 PM 35.9089 -81.7108 34° Northeast 461 531 27,000  Level Atlanta Center
Sun 12:17:45 PM 36.0156 -81.6206 34° Northeast 461 531 27,000  Level Atlanta Center
Sun 12:18:45 PM 36.1225 -81.5325 34° Northeast 461 531 27,000  Level Atlanta Center
Sun 12:19:45 PM 36.2269 -81.4442 34° Northeast 461 531 27,000  Level Atlanta Center
Sun 12:20:45 PM 36.3436 -81.3478 34° Northeast 461 531 27,000 -250 Level Atlanta Center
Sun 12:21:45 PM 36.4286 -81.2314 48° Northeast 455 524 26,500 -1,000 Descending Atlanta Center
Sun 12:22:45 PM 36.5072 -81.1072 52° Northeast 454 522 25,000 -750 Descending Atlanta Center
Sun 12:23:45 PM 36.5919 -80.9956 47° Northeast 449 517 25,000  Level Atlanta Center
Sun 12:24:45 PM 36.6686 -80.8892 48° Northeast 413 475 25,000  Level Atlanta Center
Sun 12:26:25 PM 36.7811 -80.7086 52° Northeast 436 502 25,000  Level Washington Center
Sun 12:27:26 PM 36.8572 -80.5864 52° Northeast 436 502 25,000  Level Washington Center
Sun 12:28:27 PM 36.9289 -80.4664 53° Northeast 436 502 25,000 -254 Level Washington Center
Sun 12:29:24 PM 37.0114 -80.3364 52° Northeast 436 502 24,500 -915 Descending Washington Center
Sun 12:30:25 PM 37.0847 -80.2183 52° Northeast 436 502 23,200 -1,180 Descending Washington Center
Sun 12:31:26 PM 37.1561 -80.1028 52° Northeast 431 496 22,100 -1,033 Descending Washington Center
Sun 12:32:27 PM 37.2247 -79.9922 52° Northeast 419 482 21,100 -1,190 Descending Washington Center
Sun 12:33:27 PM 37.2850 -79.8886 54° Northeast 414 476 19,700 -1,487 Descending Washington Center
Sun 12:34:24 PM 37.3536 -79.7775 52° Northeast 402 463 18,200 -1,424 Descending Washington Center
Sun 12:35:25 PM 37.4197 -79.6686 53° Northeast 397 457 16,900 -1,475 Descending Washington Center
Sun 12:36:26 PM 37.4928 -79.5469 53° Northeast 402 463 15,200 -1,525 Descending Washington Center
Sun 12:37:27 PM 37.5481 -79.4528 53° Northeast 377 434 13,800 -1,488 Descending Washington Center
Sun 12:38:27 PM 37.6142 -79.3433 53° Northeast 366 421 12,200 -1,462 Descending Washington Center
Sun 12:39:26 PM 37.6689 -79.2544 52° Northeast 353 406 10,900 -655 Descending Washington Center
Sun 12:40:26 PM 37.7281 -79.1575 52° Northeast 353 406 10,900 -446 Level Washington Center
Sun 12:41:27 PM 37.7939 -79.0475 53° Northeast 353 406 10,000 -504 Descending Washington Center
Sun 12:42:25 PM 37.8508 -78.9528 53° Northeast 353 406 9,900 -303 Descending Washington Center
Sun 12:43:26 PM 37.9036 -78.8578 55° Northeast 342 394 9,400 -836 Descending Washington Center
Sun 12:44:27 PM 37.9164 -78.7689 80° East 284 327 8,200 -1,140 Descending Washington Center
Sun 12:45:27 PM 37.8975 -78.6969 108° East 226 260 7,100 -1,017 Descending Washington Center
Sun 12:46:25 PM 37.8842 -78.6411 107° East 204 235 6,200 -1,311 Descending Washington Center
Sun 12:47:26 PM 37.9025 -78.5789 70° East 187 215 4,500 -1,388 Descending Washington Center
Sun 12:48:26 PM 37.9472 -78.5411 34° Northeast 178 205 3,400 -600 Descending Washington Center
Sun 12:49:26 PM 37.9936 -78.5219 18° North 166 191 3,300 -347 Descending Washington Center
Sun 12:50:27 PM 38.0400 -78.4972 23° Northeast 172 198 2,700 -590 Descending Washington Center
Sun 12:53:00 PM 38.1333 -78.4500 50° Northeast  Level FlightAware Approximate
Sun 01:00:00 PM 38.1386 -78.4529 50° Northeast  Level Estimated
Sun 01:01:00 PM 38.1333 -78.4500 50° Northeast  Level FlightAware Approximate
Sun 01:02:00 PM 38.1386 -78.4529 50° Northeast  Level Estimated
Sun 01:03:00 PM 38.1333 -78.4500 50° Northeast  Level FlightAware Approximate
Sun 01:04:00 PM 38.1386 -78.4529 50° Northeast  Level Estimated
Sun 01:05:00 PM 38.1333 -78.4500 50° Northeast  Level FlightAware Approximate
Sun 01:06:00 PM 38.1386 -78.4529 50° Northeast  Level Estimated
Sun 01:07:00 PM 38.1333 -78.4500 50° Northeast  Level FlightAware Approximate
Sun 01:08:00 PM 38.1386 -78.4529 50° Northeast  Level Estimated

Login

Don't have an account? Register now (free) for customized features, flight alerts, and more!